createdAt,value
2018-03-28T06:09:23.256Z,99.99
2018-03-28T06:10:22.389Z,99.99
2018-03-28T06:12:16.445Z,99.99
2018-03-28T06:13:16.099Z,99.99
2018-03-28T06:15:09.852Z,99.99
2018-03-28T06:16:09.755Z,99.99
2018-03-28T06:18:02.275Z,99.99
2018-03-28T06:19:02.580Z,99.99
2018-03-28T06:20:56.731Z,99.99
2018-03-28T06:21:54.929Z,99.99
2018-03-28T06:23:48.484Z,99.99
2018-03-28T06:24:48.198Z,99.99
2018-03-28T06:26:43.312Z,99.99
2018-03-28T06:27:43.219Z,99.99
2018-03-28T06:29:35.770Z,99.99
2018-03-28T06:30:35.737Z,99.99
2018-03-28T06:32:29.895Z,99.99
2018-03-28T06:33:29.528Z,99.99
2018-03-28T06:35:22.536Z,99.99
2018-03-28T06:36:21.365Z,99.99
2018-03-28T06:38:15.490Z,99.99
2018-03-28T06:39:14.723Z,99.99
2018-03-28T06:41:09.233Z,99.99
2018-03-28T06:42:08.804Z,99.99
2018-03-28T06:44:03.139Z,99.99
2018-03-28T06:45:01.492Z,99.99
2018-03-28T06:46:56.538Z,99.99
2018-03-28T06:47:55.600Z,99.99
2018-03-28T06:49:48.510Z,99.99
2018-03-28T06:50:48.166Z,99.99
2018-03-28T06:52:42.335Z,99.99
2018-03-28T06:53:43.421Z,99.99
2018-03-28T06:55:35.193Z,99.99
2018-03-28T06:56:35.029Z,99.99
2018-03-28T06:58:29.534Z,99.99
2018-03-28T06:59:28.447Z,99.99
2018-03-28T07:01:22.448Z,99.99
2018-03-28T07:02:21.754Z,99.99
2018-03-28T07:04:15.480Z,99.99
2018-03-28T07:05:14.775Z,99.99
2018-03-28T07:07:09.090Z,99.99
2018-03-28T07:08:08.093Z,99.99
2018-03-28T07:10:02.362Z,99.99
2018-03-28T07:11:01.675Z,99.99
2018-03-28T07:12:56.679Z,99.99
2018-03-28T07:13:55.528Z,99.99
2018-03-28T07:15:49.514Z,99.99
2018-03-28T07:16:48.342Z,99.99
2018-03-28T07:18:42.283Z,99.99
2018-03-28T07:19:43.275Z,99.99
2018-03-28T07:21:36.014Z,99.99
2018-03-28T07:22:35.918Z,99.99
2018-03-28T07:24:29.869Z,99.99
2018-03-28T07:25:30.278Z,99.99
2018-03-28T07:27:24.612Z,99.99
2018-03-28T07:28:23.787Z,99.99
2018-03-28T07:30:17.459Z,99.99
2018-03-28T07:31:17.184Z,99.99
2018-03-28T07:33:11.317Z,99.99
2018-03-28T07:34:10.307Z,99.99
2018-03-28T07:36:04.258Z,99.99
2018-03-28T07:37:03.905Z,99.99
2018-03-28T07:38:58.743Z,99.99
2018-03-28T07:39:58.224Z,99.99
2018-03-28T07:41:50.728Z,99.99
2018-03-28T07:42:51.146Z,99.99
2018-03-28T07:44:44.522Z,99.99
2018-03-28T07:45:44.504Z,99.99
2018-03-28T07:47:37.522Z,99.99
2018-03-28T07:48:37.298Z,99.99
2018-03-28T07:50:32.523Z,99.99
2018-03-28T07:51:31.501Z,99.99
2018-03-28T07:53:25.804Z,99.99
2018-03-28T07:54:24.868Z,99.99
2018-03-28T07:56:18.297Z,99.99
2018-03-28T07:57:18.296Z,99.99
2018-03-28T07:59:12.792Z,99.99
2018-03-28T08:00:13.013Z,99.70
2018-03-28T08:02:07.001Z,99.51
2018-03-28T08:03:05.711Z,99.22
2018-03-28T08:05:00.302Z,99.46
2018-03-28T08:06:00.775Z,98.85
2018-03-28T08:07:52.645Z,98.32
2018-03-28T08:08:53.707Z,98.51
2018-03-28T08:10:47.097Z,97.75
2018-03-28T08:11:45.245Z,98.03
2018-03-28T08:13:39.004Z,97.94
2018-03-28T08:14:38.359Z,97.75
2018-03-28T08:16:32.393Z,97.27
2018-03-28T08:17:32.809Z,97.08
2018-03-28T08:19:25.765Z,96.98
2018-03-28T08:20:25.135Z,97.46
2018-03-28T08:22:19.654Z,96.98
2018-03-28T08:23:18.367Z,96.80
2018-03-28T08:25:13.629Z,96.17
2018-03-28T08:26:11.993Z,96.08
2018-03-28T08:28:05.917Z,95.51
2018-03-28T08:29:05.900Z,95.70
2018-03-28T08:30:59.405Z,94.17
2018-03-28T08:31:58.343Z,94.12
2018-03-28T08:33:53.095Z,93.55
2018-03-28T08:34:52.667Z,92.79
2018-03-28T08:36:46.546Z,91.97
2018-03-28T08:37:46.741Z,91.59
2018-03-28T08:39:39.780Z,90.16
2018-03-28T08:40:38.583Z,87.77
2018-03-28T08:42:33.590Z,88.01
2018-03-28T08:43:32.092Z,88.01
2018-03-28T08:45:26.435Z,87.91
2018-03-28T08:46:25.475Z,87.24
2018-03-28T08:48:21.679Z,87.53
2018-03-28T08:49:21.266Z,88.39
2018-03-28T08:51:15.094Z,88.01
2018-03-28T08:52:14.805Z,88.63
2018-03-28T08:54:08.362Z,88.25
2018-03-28T08:55:08.366Z,89.06
2018-03-28T08:57:00.771Z,88.58
2018-03-28T08:58:00.570Z,89.01
2018-03-28T08:59:55.030Z,86.76
2018-03-28T09:00:55.409Z,86.29
2018-03-28T09:02:48.492Z,85.81
2018-03-28T09:03:48.799Z,85.29
2018-03-28T09:05:41.889Z,84.95
2018-03-28T09:06:40.863Z,84.56
2018-03-28T09:08:34.890Z,84.66
2018-03-28T09:09:35.338Z,84.19
2018-03-28T09:11:27.842Z,84.38
2018-03-28T09:12:28.322Z,83.38
2018-03-28T09:14:21.598Z,82.90
2018-03-28T09:15:20.540Z,83.67
2018-03-28T09:17:15.193Z,83.18
2018-03-28T09:18:14.876Z,83.47
2018-03-28T09:20:07.944Z,83.38
2018-03-28T09:21:06.721Z,83.47
2018-03-28T09:23:00.865Z,83.57
2018-03-28T09:24:01.676Z,83.47
2018-03-28T09:25:53.963Z,83.47
2018-03-28T09:26:54.880Z,83.04
2018-03-28T09:28:48.256Z,81.60
2018-03-28T09:29:46.873Z,80.55
2018-03-28T09:31:41.596Z,80.55
2018-03-28T09:32:40.951Z,80.40
2018-03-28T09:34:35.479Z,79.73
2018-03-28T09:35:33.696Z,79.44
2018-03-28T09:37:29.671Z,79.16
2018-03-28T09:38:29.156Z,78.97
2018-03-28T09:40:22.099Z,78.58
2018-03-28T09:41:21.362Z,78.30
2018-03-28T09:43:15.993Z,79.16
2018-03-28T09:44:14.847Z,78.20
2018-03-28T09:46:08.479Z,78.43
2018-03-28T09:47:08.044Z,78.81
2018-03-28T09:49:02.271Z,78.14
2018-03-28T09:50:02.501Z,78.53
2018-03-28T09:51:55.682Z,78.63
2018-03-28T09:52:55.675Z,78.43
2018-03-28T09:54:48.721Z,77.95
2018-03-28T09:55:47.102Z,76.90
2018-03-28T09:57:41.115Z,75.18
2018-03-28T09:58:41.548Z,74.99
2018-03-28T10:00:34.951Z,75.85
2018-03-28T10:01:35.351Z,75.12
2018-03-28T10:03:28.235Z,73.69
2018-03-28T10:04:27.181Z,73.21
2018-03-28T10:06:21.954Z,73.02
2018-03-28T10:07:20.213Z,74.07
2018-03-28T10:09:14.906Z,75.02
2018-03-28T10:10:13.434Z,74.93
2018-03-28T10:12:08.539Z,73.50
2018-03-28T10:13:07.201Z,72.54
2018-03-28T10:15:01.543Z,72.06
2018-03-28T10:16:00.346Z,71.77
2018-03-28T10:17:53.948Z,70.81
2018-03-28T10:18:53.942Z,70.53
2018-03-28T10:20:46.980Z,70.62
2018-03-28T10:21:47.406Z,71.20
2018-03-28T10:23:41.311Z,72.63
2018-03-28T10:24:41.383Z,72.63
2018-03-28T10:26:34.247Z,71.87
2018-03-28T10:27:34.124Z,72.54
2018-03-28T10:29:27.777Z,72.73
2018-03-28T10:30:27.925Z,72.83
2018-03-28T10:32:21.163Z,71.48
2018-03-28T10:33:20.214Z,70.62
2018-03-28T10:35:15.038Z,70.40
2018-03-28T10:36:14.037Z,70.91
2018-03-28T10:38:06.899Z,71.20
2018-03-28T10:39:06.302Z,70.59
2018-03-28T10:41:01.060Z,71.26
2018-03-28T10:42:00.899Z,71.83
2018-03-28T10:43:54.313Z,72.02
2018-03-28T10:44:54.288Z,72.02
2018-03-28T10:46:47.929Z,71.48
2018-03-28T10:47:48.403Z,71.39
2018-03-28T10:49:41.696Z,69.86
2018-03-28T10:50:40.109Z,69.29
2018-03-28T10:52:34.252Z,67.94
2018-03-28T10:53:35.264Z,67.47
2018-03-28T10:55:28.510Z,67.85
2018-03-28T10:56:26.995Z,68.04
2018-03-28T10:58:22.009Z,69.95
2018-03-28T10:59:20.923Z,69.38
2018-03-28T11:01:16.333Z,69.38
2018-03-28T11:02:16.063Z,69.29
2018-03-28T11:04:10.989Z,69.29
2018-03-28T11:05:09.557Z,70.53
2018-03-28T11:07:02.922Z,69.38
2018-03-28T11:08:01.684Z,69.48
2018-03-28T11:09:55.704Z,69.35
2018-03-28T11:10:56.313Z,69.64
2018-03-28T11:12:49.851Z,69.06
2018-03-28T11:13:49.621Z,69.15
2018-03-28T11:15:42.114Z,68.87
2018-03-28T11:16:42.523Z,69.25
2018-03-28T11:18:35.597Z,69.70
2018-03-28T11:19:35.979Z,70.07
2018-03-28T11:21:29.667Z,71.32
2018-03-28T11:22:28.889Z,72.75
2018-03-28T11:24:22.208Z,74.57
2018-03-28T11:25:21.386Z,75.24
2018-03-28T11:27:18.263Z,76.10
2018-03-28T11:28:15.080Z,76.39
2018-03-28T11:30:09.481Z,77.72
2018-03-28T11:31:08.210Z,78.11
2018-03-28T11:33:02.965Z,78.20
2018-03-28T11:34:03.068Z,78.68
2018-03-28T11:35:56.143Z,77.59
2018-03-28T11:36:55.658Z,78.11
2018-03-28T11:38:48.699Z,76.92
2018-03-28T11:39:48.543Z,76.54
2018-03-28T11:41:43.323Z,76.54
2018-03-28T11:42:42.262Z,76.54
2018-03-28T11:44:34.757Z,76.54
2018-03-28T11:45:34.153Z,76.25
2018-03-28T11:47:28.237Z,75.30
2018-03-28T11:48:28.560Z,75.87
2018-03-28T11:50:28.247Z,76.10
2018-03-28T11:51:23.048Z,75.49
2018-03-28T11:53:15.384Z,74.34
2018-03-28T11:54:14.594Z,74.24
2018-03-28T11:56:08.915Z,75.05
2018-03-28T11:57:08.858Z,75.49
2018-03-28T11:59:01.632Z,75.52
2018-03-28T12:00:00.417Z,75.39
2018-03-28T12:01:55.621Z,75.30
2018-03-28T12:02:55.366Z,73.48
2018-03-28T12:04:49.828Z,74.15
2018-03-28T12:05:49.061Z,74.63
2018-03-28T12:07:43.316Z,74.05
2018-03-28T12:08:41.661Z,74.15
2018-03-28T12:10:35.719Z,74.05
2018-03-28T12:11:36.545Z,74.15
2018-03-28T12:13:30.145Z,73.63
2018-03-28T12:14:29.403Z,74.11
2018-03-28T12:16:24.271Z,75.54
2018-03-28T12:17:23.380Z,76.60
2018-03-28T12:19:17.366Z,75.64
2018-03-28T12:20:16.338Z,76.60
2018-03-28T12:22:11.015Z,76.79
2018-03-28T12:23:10.902Z,78.18
2018-03-28T12:25:04.385Z,79.71
2018-03-28T12:26:04.366Z,79.80
2018-03-28T12:27:58.005Z,80.76
2018-03-28T12:28:57.527Z,80.38
2018-03-28T12:30:51.020Z,80.85
2018-03-28T12:31:50.138Z,81.81
2018-03-28T12:33:43.967Z,83.58
2018-03-28T12:34:44.338Z,83.11
2018-03-28T12:36:36.926Z,83.39
2018-03-28T12:37:35.846Z,84.25
2018-03-28T12:39:31.048Z,83.58
2018-03-28T12:40:30.207Z,84.44
2018-03-28T12:42:24.429Z,84.82
2018-03-28T12:43:23.050Z,84.53
2018-03-28T12:46:07.835Z,84.82
2018-03-28T12:47:07.788Z,85.30
2018-03-28T12:49:01.634Z,86.44
2018-03-28T12:50:01.210Z,85.68
2018-03-28T12:51:54.814Z,86.35
2018-03-28T12:52:52.955Z,86.25
2018-03-28T12:54:47.568Z,86.82
2018-03-28T12:55:48.228Z,86.92
2018-03-28T12:57:40.898Z,86.35
2018-03-28T12:58:41.079Z,85.87
2018-03-28T13:00:33.957Z,87.11
2018-03-28T13:01:34.888Z,87.26
2018-03-28T13:03:28.202Z,88.92
2018-03-28T13:04:28.432Z,89.40
2018-03-28T13:06:21.777Z,88.88
2018-03-28T13:07:20.018Z,89.31
2018-03-28T13:09:14.211Z,89.83
2018-03-28T13:10:13.164Z,89.36
2018-03-28T13:12:07.966Z,89.36
2018-03-28T13:13:07.462Z,89.64
2018-03-28T13:15:00.055Z,89.74
2018-03-28T13:15:59.366Z,89.64
2018-03-28T13:17:54.021Z,89.07
2018-03-28T13:18:53.036Z,89.74
2018-03-28T13:20:47.727Z,91.17
2018-03-28T13:21:46.408Z,90.88
2018-03-28T13:23:41.451Z,90.98
2018-03-28T13:24:40.537Z,91.17
2018-03-28T13:26:35.274Z,91.17
2018-03-28T13:27:33.724Z,91.36
2018-03-28T13:29:28.235Z,91.93
2018-03-28T13:30:26.839Z,91.93
2018-03-28T13:32:23.733Z,92.98
2018-03-28T13:33:22.756Z,92.41
2018-03-28T13:35:16.533Z,92.46
2018-03-28T13:36:14.574Z,92.55
2018-03-28T13:38:08.719Z,92.46
2018-03-28T13:39:08.088Z,91.98
2018-03-28T13:41:02.842Z,92.46
2018-03-28T13:42:01.139Z,92.55
2018-03-28T13:43:56.517Z,93.60
2018-03-28T13:44:54.914Z,93.41
2018-03-28T13:46:48.902Z,93.70
2018-03-28T13:47:48.095Z,94.08
2018-03-28T13:49:42.864Z,93.98
2018-03-28T13:50:42.469Z,93.79
2018-03-28T13:52:35.908Z,94.46
2018-03-28T13:53:34.981Z,94.46
2018-03-28T13:55:29.380Z,94.17
2018-03-28T13:56:27.682Z,94.27
2018-03-28T13:58:21.806Z,94.37
2018-03-28T13:59:21.148Z,94.08
2018-03-28T14:01:17.046Z,94.56
2018-03-28T14:02:15.256Z,95.03
2018-03-28T14:04:09.886Z,94.56
2018-03-28T14:05:08.028Z,94.56
2018-03-28T14:07:03.604Z,94.08
2018-03-28T14:08:01.738Z,94.08
2018-03-28T14:09:55.643Z,94.32
2018-03-28T14:10:54.992Z,94.32
2018-03-28T14:12:48.950Z,95.36
2018-03-28T14:13:48.444Z,94.98
2018-03-28T14:15:42.181Z,95.32
2018-03-28T14:16:40.807Z,95.79
2018-03-28T14:18:35.568Z,94.56
2018-03-28T14:19:35.361Z,94.27
2018-03-28T14:21:28.764Z,94.46
2018-03-28T14:22:28.087Z,94.13
2018-03-28T14:24:22.327Z,94.41
2018-03-28T14:25:20.933Z,94.22
2018-03-28T14:27:14.010Z,94.79
2018-03-28T14:28:13.816Z,95.56
2018-03-28T14:30:08.970Z,95.56
2018-03-28T14:31:08.950Z,95.17
2018-03-28T14:33:02.186Z,94.93
2018-03-28T14:34:01.834Z,94.84
2018-03-28T14:35:55.641Z,93.88
2018-03-28T14:36:54.208Z,94.17
2018-03-28T14:38:49.213Z,93.60
2018-03-28T14:39:49.028Z,93.70
2018-03-28T14:41:41.923Z,93.60
2018-03-28T14:44:34.936Z,92.74
2018-03-28T14:45:33.734Z,92.84
2018-03-28T14:47:27.422Z,93.70
2018-03-28T14:48:27.702Z,94.08
2018-03-28T14:50:20.819Z,94.17
2018-03-28T14:51:19.971Z,94.74
2018-03-28T14:53:15.087Z,93.98
2018-03-28T14:54:13.468Z,94.17
2018-03-28T14:56:07.920Z,94.84
2018-03-28T14:57:07.268Z,95.61
2018-03-28T14:59:03.097Z,95.12
2018-03-28T15:00:01.617Z,94.65
2018-03-28T15:01:55.429Z,94.27
2018-03-28T15:02:53.526Z,93.88
2018-03-28T15:04:47.616Z,94.51
2018-03-28T15:05:47.418Z,94.03
2018-03-28T15:07:40.992Z,93.74
2018-03-28T15:08:39.648Z,94.22
2018-03-28T15:11:25.761Z,93.08
2018-03-28T15:12:24.233Z,93.74
2018-03-28T15:14:23.284Z,94.12
2018-03-28T15:15:20.261Z,94.22
2018-03-28T15:17:15.480Z,93.74
2018-03-28T15:18:14.093Z,93.65
2018-03-28T15:20:07.843Z,94.22
2018-03-28T15:21:06.002Z,93.84
2018-03-28T15:22:58.956Z,93.17
2018-03-28T15:23:59.917Z,92.79
2018-03-28T15:25:54.529Z,93.55
2018-03-28T15:26:52.703Z,93.74
2018-03-28T15:28:45.918Z,93.46
2018-03-28T15:29:44.541Z,93.46
2018-03-28T15:31:39.359Z,93.93
2018-03-28T15:32:38.717Z,93.55
2018-03-28T15:34:32.203Z,94.03
2018-03-28T15:35:31.769Z,94.27
2018-03-28T15:37:25.985Z,94.93
2018-03-28T15:38:26.493Z,95.41
2018-03-28T15:40:22.544Z,95.17
2018-03-28T15:41:21.382Z,95.65
2018-03-28T15:43:13.463Z,95.27
2018-03-28T15:44:12.719Z,95.65
2018-03-28T15:46:06.774Z,95.27
2018-03-28T15:47:07.450Z,95.46
2018-03-28T15:50:46.571Z,95.27
2018-03-28T15:51:41.487Z,95.27
2018-03-28T15:53:36.007Z,94.89
2018-03-28T15:54:35.164Z,95.08
2018-03-28T15:56:28.251Z,95.51
2018-03-28T15:57:29.100Z,95.41
2018-03-28T15:59:21.874Z,95.79
2018-03-28T16:00:21.584Z,96.36
2018-03-28T16:02:16.326Z,95.89
2018-03-28T16:03:16.350Z,95.89
2018-03-28T16:05:10.683Z,96.36
2018-03-28T16:06:09.677Z,96.46
2018-03-28T16:08:02.969Z,96.84
2018-03-28T16:09:03.264Z,96.27
2018-03-28T16:10:56.317Z,97.03
2018-03-28T16:11:56.016Z,96.65
2018-03-28T16:13:49.989Z,97.03
2018-03-28T16:14:49.391Z,96.65
2018-03-28T16:16:43.020Z,96.36
2018-03-28T16:17:43.085Z,96.94
2018-03-28T16:19:36.412Z,96.46
2018-03-28T16:20:36.099Z,96.84
2018-03-28T16:22:29.262Z,97.32
2018-03-28T16:23:29.199Z,97.89
2018-03-28T16:25:23.750Z,97.99
2018-03-28T16:26:23.623Z,98.46
2018-03-28T16:28:17.447Z,97.70
2018-03-28T16:29:16.983Z,97.61
2018-03-28T16:31:09.668Z,97.51
2018-03-28T16:32:10.097Z,97.70
2018-03-28T16:34:03.260Z,97.89
2018-03-28T16:35:03.235Z,98.36
2018-03-28T16:36:56.667Z,98.46
2018-03-28T16:37:56.395Z,98.85
2018-03-28T16:39:50.205Z,98.75
2018-03-28T16:40:50.237Z,98.46
2018-03-28T16:42:53.768Z,99.04
2018-03-28T16:44:57.597Z,99.13
2018-03-28T16:45:57.455Z,99.04
2018-03-28T16:47:50.821Z,99.13
2018-03-28T16:50:55.436Z,98.94
2018-03-28T16:51:46.699Z,99.32
2018-03-28T16:54:29.172Z,99.13
2018-03-28T16:55:28.667Z,98.94
2018-03-28T16:57:22.771Z,99.13
2018-03-28T16:58:22.605Z,98.94
2018-03-28T17:00:15.689Z,98.94
2018-03-28T17:01:15.439Z,98.65
2018-03-28T17:03:10.470Z,99.22
2018-03-28T17:04:09.340Z,99.13
2018-03-28T17:06:02.320Z,99.04
2018-03-28T17:07:03.532Z,98.85
2018-03-28T17:08:57.643Z,98.94
2018-03-28T17:09:56.231Z,98.94
2018-03-28T17:11:51.586Z,99.89
2018-03-28T17:12:49.454Z,99.80
2018-03-28T17:14:42.436Z,99.51
2018-03-28T17:15:42.783Z,99.51
2018-03-28T17:17:35.155Z,99.41
2018-03-28T17:18:35.134Z,99.51
2018-03-28T17:20:28.793Z,99.51
2018-03-28T17:21:28.489Z,99.80
2018-03-28T17:23:21.988Z,99.60
2018-03-28T17:24:21.851Z,98.85
2018-03-28T17:26:15.409Z,99.04
2018-03-28T17:27:15.228Z,99.04
2018-03-28T17:29:08.677Z,98.94
2018-03-28T17:30:08.658Z,99.04
2018-03-28T17:32:02.047Z,99.27
2018-03-28T17:33:01.993Z,98.80
2018-03-28T17:34:56.221Z,98.90
2018-03-28T17:35:55.353Z,98.42
2018-03-28T17:37:48.752Z,97.75
2018-03-28T17:38:48.726Z,98.13
2018-03-28T17:40:41.680Z,97.66
2018-03-28T17:41:41.608Z,97.27
2018-03-28T17:43:35.032Z,97.37
2018-03-28T17:44:34.941Z,97.37
2018-03-28T17:46:28.367Z,97.32
2018-03-28T17:47:28.311Z,97.51
2018-03-28T17:49:22.772Z,97.22
2018-03-28T17:50:21.667Z,97.80
2018-03-28T17:52:14.589Z,97.99
2018-03-28T17:53:14.556Z,97.99
2018-03-28T17:55:07.950Z,98.08
2018-03-28T17:56:07.918Z,98.75
2018-03-28T17:58:01.316Z,99.04
2018-03-28T17:59:01.305Z,98.75
2018-03-28T18:00:54.730Z,98.79
2018-03-28T18:01:54.641Z,98.99
2018-03-28T18:03:48.682Z,98.89
2018-03-28T18:04:48.205Z,98.89
2018-03-28T18:06:41.114Z,98.60
2018-03-28T18:07:41.078Z,98.60
2018-03-28T18:09:34.567Z,98.70
2018-03-28T18:10:34.421Z,98.70
2018-03-28T18:12:27.402Z,98.13
2018-03-28T18:13:27.867Z,98.51
2018-03-28T18:15:20.700Z,98.22
2018-03-28T18:16:20.644Z,98.13
2018-03-28T18:18:15.039Z,96.80
2018-03-28T18:19:15.005Z,96.70
2018-03-28T18:21:08.483Z,95.94
2018-03-28T18:22:08.384Z,95.75
2018-03-28T18:24:01.353Z,95.61
2018-03-28T18:25:01.240Z,95.03
2018-03-28T18:26:54.225Z,94.08
2018-03-28T18:27:54.094Z,94.17
2018-03-28T18:29:46.988Z,92.46
2018-03-28T18:30:46.956Z,91.31
2018-03-28T18:32:39.849Z,90.36
2018-03-28T18:33:39.825Z,89.50
2018-03-28T18:35:32.722Z,89.60
2018-03-28T18:36:32.680Z,89.22
2018-03-28T18:38:26.184Z,89.12
2018-03-28T18:39:26.059Z,89.46
2018-03-28T18:41:19.525Z,88.79
2018-03-28T18:42:19.411Z,89.46
2018-03-28T18:44:12.414Z,89.17
2018-03-28T18:45:12.266Z,89.26
2018-03-28T18:47:05.753Z,88.60
2018-03-28T18:48:05.649Z,88.22
2018-03-28T18:49:59.025Z,87.07
2018-03-28T18:50:58.999Z,86.98
2018-03-28T18:52:51.921Z,88.22
2018-03-28T18:53:51.858Z,89.36
2018-03-28T18:55:44.851Z,90.31
2018-03-28T18:56:44.724Z,90.98
2018-03-28T18:58:38.176Z,91.22
2018-03-28T18:59:38.112Z,91.60
2018-03-28T19:01:30.990Z,90.98
2018-03-28T19:02:30.972Z,91.03
2018-03-28T19:04:23.852Z,90.22
2018-03-28T19:05:23.822Z,90.27
2018-03-28T19:07:16.717Z,88.93
2018-03-28T19:08:16.694Z,89.13
2018-03-28T19:10:10.140Z,87.03
2018-03-28T19:11:10.048Z,85.32
2018-03-28T19:13:02.963Z,85.41
2018-03-28T19:14:02.932Z,85.70
2018-03-28T19:15:56.294Z,86.27
2018-03-28T19:16:56.275Z,86.18
2018-03-28T19:18:49.857Z,86.94
2018-03-28T19:19:49.627Z,86.55
2018-03-28T19:21:42.765Z,86.75
2018-03-28T19:22:42.476Z,86.75
2018-03-28T19:24:35.412Z,87.60
2018-03-28T19:25:35.338Z,88.23
2018-03-28T19:27:28.240Z,88.89
2018-03-28T19:28:28.202Z,88.70
2018-03-28T19:30:21.659Z,88.89
2018-03-28T19:31:21.566Z,89.65
2018-03-28T19:33:14.973Z,89.47
2018-03-28T19:34:14.905Z,90.13
2018-03-28T19:36:08.351Z,89.56
2018-03-28T19:37:08.285Z,88.89
2018-03-28T19:39:01.648Z,89.47
2018-03-28T19:40:01.620Z,88.89
2018-03-28T19:41:54.517Z,89.75
2018-03-28T19:42:54.549Z,89.94
2018-03-28T19:44:47.442Z,90.13
2018-03-28T19:45:47.344Z,88.94
2018-03-28T19:47:41.318Z,88.75
2018-03-28T19:48:40.695Z,88.46
2018-03-28T19:50:34.173Z,88.75
2018-03-28T19:51:34.063Z,88.18
2018-03-28T19:53:26.948Z,87.99
2018-03-28T19:54:26.916Z,88.28
2018-03-28T19:56:20.378Z,87.80
2018-03-28T19:57:20.757Z,87.90
2018-03-28T19:59:15.637Z,88.28
2018-03-28T20:00:15.620Z,88.09
2018-03-28T20:02:07.583Z,87.42
2018-03-28T20:03:07.512Z,87.13
2018-03-28T20:05:00.541Z,87.23
2018-03-28T20:06:00.370Z,86.76
2018-03-28T20:07:53.467Z,85.99
2018-03-28T20:08:53.233Z,85.90
2018-03-28T20:10:46.112Z,86.18
2018-03-28T20:11:46.086Z,86.57
2018-03-28T20:13:38.969Z,86.66
2018-03-28T20:14:39.534Z,87.13
2018-03-28T20:16:32.074Z,88.09
2018-03-28T20:17:31.795Z,88.46
2018-03-28T20:19:24.917Z,89.32
2018-03-28T20:20:24.718Z,89.61
2018-03-28T20:22:18.334Z,89.42
2018-03-28T20:23:18.032Z,89.14
2018-03-28T20:25:11.406Z,89.56
2018-03-28T20:26:11.397Z,88.90
2018-03-28T20:28:09.839Z,87.38
2018-03-28T20:29:07.260Z,86.80
2018-03-28T20:31:00.318Z,86.61
2018-03-28T20:32:00.151Z,86.71
2018-03-28T20:33:53.041Z,86.99
2018-03-28T20:34:52.999Z,86.71
2018-03-28T20:36:45.911Z,87.38
2018-03-28T20:37:45.862Z,87.19
2018-03-28T20:39:39.305Z,86.90
2018-03-28T20:40:38.707Z,85.86
2018-03-28T20:42:32.138Z,85.76
2018-03-28T20:43:31.866Z,85.19
2018-03-28T20:45:25.035Z,85.47
2018-03-28T20:46:24.740Z,85.57
2018-03-28T20:48:17.743Z,85.38
2018-03-28T20:49:17.565Z,85.57
2018-03-28T20:51:10.969Z,84.52
2018-03-28T20:52:10.934Z,85.05
2018-03-28T20:54:03.810Z,84.62
2018-03-28T20:55:03.785Z,85.19
2018-03-28T20:56:56.989Z,85.66
2018-03-28T20:57:56.945Z,85.38
2018-03-28T20:59:50.062Z,84.48
2018-03-28T21:00:50.373Z,84.58
2018-03-28T21:02:42.701Z,84.86
2018-03-28T21:03:42.668Z,85.15
2018-03-28T21:05:36.214Z,84.86
2018-03-28T21:06:36.029Z,84.95
2018-03-28T21:08:28.903Z,85.05
2018-03-28T21:09:28.889Z,84.29
2018-03-28T21:11:22.065Z,85.05
2018-03-28T21:12:22.036Z,84.67
2018-03-28T21:14:15.504Z,84.86
2018-03-28T21:15:15.390Z,85.53
2018-03-28T21:17:08.484Z,85.24
2018-03-28T21:18:08.824Z,85.62
2018-03-28T21:20:01.217Z,85.53
2018-03-28T21:21:01.110Z,84.95
2018-03-28T21:22:54.249Z,85.43
2018-03-28T21:23:53.991Z,84.95
2018-03-28T21:25:46.973Z,84.58
2018-03-28T21:26:46.864Z,84.67
2018-03-28T21:28:40.219Z,84.39
2018-03-28T21:29:40.181Z,84.29
2018-03-28T21:31:33.251Z,84.77
2018-03-28T21:32:33.615Z,84.63
2018-03-28T21:34:26.140Z,84.67
2018-03-28T21:35:25.926Z,84.63
2018-03-28T21:37:19.490Z,84.25
2018-03-28T21:38:19.255Z,85.39
2018-03-28T21:40:12.632Z,85.77
2018-03-28T21:41:12.604Z,85.96
2018-03-28T21:43:05.979Z,86.63
2018-03-28T21:44:05.482Z,87.10
2018-03-28T21:45:58.674Z,87.67
2018-03-28T21:46:58.370Z,87.29
2018-03-28T21:48:52.136Z,87.76
2018-03-28T21:49:52.732Z,87.86
2018-03-28T21:51:45.349Z,88.15
2018-03-28T21:52:45.702Z,87.95
2018-03-28T21:54:38.726Z,88.81
2018-03-28T21:55:38.476Z,88.90
2018-03-28T21:57:32.338Z,89.28
2018-03-28T21:58:32.246Z,88.81
2018-03-28T22:00:25.618Z,89.09
2018-03-28T22:01:26.168Z,88.53
2018-03-28T22:03:19.235Z,88.71
2018-03-28T22:04:18.946Z,88.34
2018-03-28T22:06:12.066Z,88.62
2018-03-28T22:07:11.782Z,88.90
2018-03-28T22:09:04.700Z,88.86
2018-03-28T22:10:04.658Z,88.86
2018-03-28T22:11:57.639Z,88.81
2018-03-28T22:12:57.524Z,89.24
2018-03-28T22:14:51.096Z,89.38
2018-03-28T22:15:50.889Z,89.09
2018-03-28T22:17:44.617Z,89.28
2018-03-28T22:18:44.226Z,88.90
2018-03-28T22:20:37.611Z,88.76
2018-03-28T22:21:37.560Z,89.24
2018-03-28T22:23:30.980Z,89.90
2018-03-28T22:24:30.932Z,89.67
2018-03-28T22:26:24.504Z,90.00
2018-03-28T22:27:24.405Z,90.38
2018-03-28T22:29:17.669Z,90.09
2018-03-28T22:30:17.639Z,90.28
2018-03-28T22:32:10.861Z,90.47
2018-03-28T22:33:10.508Z,90.28
2018-03-28T22:35:04.264Z,90.28
2018-03-28T22:36:03.848Z,90.95
2018-03-28T22:37:56.798Z,90.85
2018-03-28T22:38:56.727Z,90.95
2018-03-28T22:40:50.128Z,91.14
2018-03-28T22:41:50.057Z,91.52
2018-03-28T22:43:43.143Z,92.09
2018-03-28T22:44:42.945Z,92.37
2018-03-28T22:46:36.322Z,92.18
2018-03-28T22:47:36.271Z,92.09
2018-03-28T22:49:29.665Z,93.32
2018-03-28T22:50:29.643Z,92.47
2018-03-28T22:52:22.532Z,93.04
2018-03-28T22:53:22.501Z,93.13
2018-03-28T22:55:15.607Z,92.94
2018-03-28T22:56:15.339Z,92.94
2018-03-28T22:58:09.092Z,92.75
2018-03-28T22:59:08.721Z,91.89
2018-03-28T23:01:02.349Z,92.18
2018-03-28T23:02:02.054Z,92.47
2018-03-28T23:03:55.715Z,92.37
2018-03-28T23:04:55.398Z,92.28
2018-03-28T23:06:48.846Z,92.18
2018-03-28T23:07:49.339Z,92.28
2018-03-28T23:09:42.225Z,92.18
2018-03-28T23:10:41.902Z,92.75
2018-03-28T23:12:35.511Z,94.18
2018-03-28T23:13:35.257Z,93.89
2018-03-28T23:15:29.868Z,93.80
2018-03-28T23:16:29.591Z,93.70
2018-03-28T23:18:23.238Z,93.60
2018-03-28T23:19:22.949Z,93.51
2018-03-28T23:21:15.878Z,93.89
2018-03-28T23:22:15.825Z,93.89
2018-03-28T23:24:08.969Z,94.18
2018-03-28T23:25:09.744Z,93.80
2018-03-28T23:27:02.382Z,93.89
2018-03-28T23:28:02.116Z,93.89
2018-03-28T23:29:55.267Z,94.18
2018-03-28T23:30:54.987Z,94.27
2018-03-28T23:32:48.585Z,94.56
2018-03-28T23:33:48.342Z,94.27
2018-03-28T23:35:41.922Z,94.46
2018-03-28T23:36:41.695Z,94.18
2018-03-28T23:38:34.602Z,94.46
2018-03-28T23:39:34.536Z,94.46
2018-03-28T23:41:27.712Z,95.03
2018-03-28T23:42:27.415Z,94.93
2018-03-28T23:44:20.989Z,95.03
2018-03-28T23:45:20.770Z,95.70
2018-03-28T23:47:14.320Z,95.51
2018-03-28T23:48:14.143Z,94.74
2018-03-28T23:50:07.013Z,94.74
2018-03-28T23:51:06.969Z,95.12
2018-03-28T23:52:59.848Z,95.12
2018-03-28T23:53:59.818Z,95.89
2018-03-28T23:55:52.922Z,95.22
2018-03-28T23:56:52.700Z,95.22
2018-03-28T23:58:45.563Z,94.84
2018-03-28T23:59:45.530Z,94.93
